Time;durP1;ratioP1;P1;durP2;ratioP2;P2;SDS_P1;SDS_P2;PMS_P1;PMS_P2;Temp;Humidity;BMP_temperature;BMP_pressure;BME280_temperature;BME280_humidity;BME280_pressure;Samples;Min_cycle;Max_cycle;Signal;HPM_P1;HPM_P2
2022/11/05 00:10:19;;;;;;;7.20;5.43;;;11.00;99.90;;;;;;5025051;28;20408;-44
2022/11/05 00:18:17;;;;;;;7.20;4.47;;;10.80;99.90;;;;;;5099007;28;20477;-47
2022/11/05 00:20:43;;;;;;;9.30;5.90;;;10.70;99.90;;;;;;5098337;28;20526;-47
2022/11/05 00:26:02;;;;;;;10.77;4.47;;;10.70;99.90;;;;;;5098728;28;20434;-44
2022/11/05 00:28:30;;;;;;;8.70;5.10;;;10.70;99.90;;;;;;5098643;28;20454;-50
2022/11/05 00:31:01;;;;;;;7.33;4.60;;;10.70;99.90;;;;;;5087438;28;20468;-41
2022/11/05 00:33:27;;;;;;;8.00;4.87;;;10.70;99.90;;;;;;5097229;28;20489;-41
2022/11/05 00:35:54;;;;;;;7.03;5.47;;;10.60;99.90;;;;;;5098652;28;20506;-49
2022/11/05 00:38:23;;;;;;;8.00;4.50;;;10.60;99.90;;;;;;5087216;28;20517;-45
2022/11/05 00:40:50;;;;;;;21.20;6.03;;;10.60;99.90;;;;;;5097662;28;20510;-43
2022/11/05 00:46:01;;;;;;;9.50;4.60;;;10.50;99.90;;;;;;5098976;28;20457;-52
2022/11/05 00:51:12;;;;;;;10.23;4.80;;;10.50;99.90;;;;;;5098518;28;20457;-44
2022/11/05 00:53:42;;;;;;;9.83;4.03;;;10.50;99.90;;;;;;5097735;28;20502;-47
2022/11/05 00:56:09;;;;;;;7.67;3.83;;;10.50;99.90;;;;;;5085753;28;20449;-46
2022/11/05 00:58:36;;;;;;;8.47;3.97;;;10.50;99.90;;;;;;5097372;28;20500;-45
2022/11/05 01:01:03;;;;;;;5.50;3.63;;;10.40;99.90;;;;;;5085779;28;20435;-47
2022/11/05 01:03:32;;;;;;;6.47;3.87;;;10.50;99.90;;;;;;5098157;28;20451;-51
2022/11/05 01:06:06;;;;;;;8.20;4.17;;;10.50;99.90;;;;;;5084821;28;20550;-41
2022/11/05 01:08:33;;;;;;;5.70;4.10;;;10.50;99.90;;;;;;5088991;28;20428;-47
2022/11/05 01:11:08;;;;;;;11.53;3.83;;;10.50;99.90;;;;;;5094016;28;20895;-41
2022/11/05 01:13:35;;;;;;;9.53;4.80;;;10.50;99.90;;;;;;5097694;28;20494;-44
2022/11/05 01:16:06;;;;;;;9.13;4.17;;;10.50;99.90;;;;;;5097454;28;20450;-48
2022/11/05 01:18:34;;;;;;;4.77;3.07;;;10.50;99.90;;;;;;5092230;28;20486;-47
2022/11/05 01:21:11;;;;;;;6.37;3.17;;;10.50;99.90;;;;;;5089741;28;20556;-45
2022/11/05 01:23:40;;;;;;;4.80;3.00;;;10.50;99.90;;;;;;5097840;28;20482;-47
2022/11/05 01:26:08;;;;;;;5.93;3.63;;;10.50;99.90;;;;;;5090648;28;20449;-42
2022/11/05 01:28:37;;;;;;;9.00;4.07;;;10.50;99.90;;;;;;5091248;28;20468;-44
2022/11/05 01:31:04;;;;;;;5.63;3.90;;;10.50;99.90;;;;;;5084431;28;20541;-46
2022/11/05 01:33:31;;;;;;;5.80;3.40;;;10.50;99.90;;;;;;5097275;28;20433;-46
2022/11/05 01:36:01;;;;;;;7.10;4.10;;;10.50;99.90;;;;;;5097169;28;20506;-46
2022/11/05 01:38:28;;;;;;;6.60;4.13;;;10.40;99.90;;;;;;5097357;28;20533;-42
2022/11/05 01:40:55;;;;;;;5.60;4.17;;;10.40;99.90;;;;;;5097094;28;20442;-45
2022/11/05 01:43:23;;;;;;;6.90;3.00;;;10.50;99.90;;;;;;5095543;28;20466;-47
2022/11/05 01:45:56;;;;;;;7.40;3.63;;;10.50;99.90;;;;;;5086192;28;20522;-43
2022/11/05 01:48:28;;;;;;;7.73;3.83;;;10.50;99.90;;;;;;5096844;28;20483;-43
2022/11/05 01:50:59;;;;;;;6.33;3.63;;;10.40;99.90;;;;;;5097357;28;20437;-52
2022/11/05 01:53:31;;;;;;;4.80;3.50;;;10.40;99.90;;;;;;5097878;28;20433;-45
2022/11/05 01:56:03;;;;;;;6.77;3.97;;;10.40;99.90;;;;;;5097618;28;20553;-48
2022/11/05 01:58:37;;;;;;;8.83;3.90;;;10.40;99.90;;;;;;5084002;28;20474;-46
2022/11/05 02:01:04;;;;;;;5.80;4.13;;;10.40;99.90;;;;;;5097014;28;20472;-48
2022/11/05 02:03:31;;;;;;;7.37;4.03;;;10.40;99.90;;;;;;5096983;28;20449;-47
2022/11/05 02:05:59;;;;;;;8.43;4.90;;;10.40;99.90;;;;;;5096421;28;20446;-44
2022/11/05 02:08:36;;;;;;;8.80;4.33;;;10.40;99.90;;;;;;5096790;28;20485;-49
2022/11/05 02:11:04;;;;;;;7.73;4.20;;;10.30;99.90;;;;;;5096431;28;20499;-47
2022/11/05 02:13:34;;;;;;;5.07;3.73;;;10.30;99.90;;;;;;5084044;28;20476;-44
2022/11/05 02:16:09;;;;;;;6.50;3.87;;;10.30;99.90;;;;;;5096734;28;20453;-47
2022/11/05 02:18:47;;;;;;;5.07;3.97;;;10.30;99.90;;;;;;5096101;28;20484;-42
2022/11/05 02:21:49;;;;;;;7.27;3.70;;;10.30;99.90;;;;;;5096514;28;20502;-46
2022/11/05 02:24:43;;;;;;;6.37;3.47;;;10.30;99.90;;;;;;5071164;28;20429;-44
2022/11/05 02:27:21;;;;;;;6.10;4.27;;;10.30;99.90;;;;;;5095856;28;20550;-46
2022/11/05 02:30:11;;;;;;;6.27;3.90;;;10.30;99.90;;;;;;5096222;28;20430;-49
2022/11/05 02:32:55;;;;;;;5.37;3.53;;;10.20;99.90;;;;;;5095664;28;20485;-52
2022/11/05 02:35:32;;;;;;;4.93;3.73;;;10.20;99.90;;;;;;5096525;28;20849;-45
2022/11/05 02:38:06;;;;;;;8.70;4.40;;;10.20;99.90;;;;;;5096375;28;20461;-46
2022/11/05 02:40:46;;;;;;;5.50;3.77;;;10.10;99.90;;;;;;5096029;28;20472;-45
2022/11/05 02:43:23;;;;;;;6.07;3.93;;;10.10;99.90;;;;;;5090548;28;20465;-47
2022/11/05 02:46:01;;;;;;;5.53;3.63;;;10.20;99.90;;;;;;5089300;28;20466;-48
2022/11/05 02:48:40;;;;;;;8.97;5.23;;;10.20;99.90;;;;;;5096416;28;20419;-44
2022/11/05 02:51:15;;;;;;;9.20;5.30;;;10.20;99.90;;;;;;5096474;28;20434;-43
2022/11/05 02:53:47;;;;;;;8.50;4.80;;;10.10;99.90;;;;;;5096520;28;20410;-40
2022/11/05 02:56:18;;;;;;;6.90;4.93;;;10.00;99.90;;;;;;5095674;28;20446;-51
2022/11/05 02:58:46;;;;;;;7.10;4.17;;;10.00;99.90;;;;;;5084732;28;20477;-51
2022/11/05 03:01:13;;;;;;;7.83;4.40;;;9.90;99.90;;;;;;5088660;28;20438;-47
2022/11/05 03:03:42;;;;;;;11.80;6.63;;;9.90;99.90;;;;;;5090109;28;20458;-44
2022/11/05 03:06:25;;;;;;;5.70;3.60;;;9.90;99.90;;;;;;5085150;28;20506;-47
2022/11/05 03:09:35;;;;;;;9.67;5.27;;;9.90;99.90;;;;;;5096104;28;20502;-46
2022/11/05 03:12:14;;;;;;;8.23;4.40;;;9.90;99.90;;;;;;5080470;28;20446;-46
2022/11/05 03:14:45;;;;;;;9.80;5.00;;;9.90;99.90;;;;;;5094854;28;20429;-42
2022/11/05 03:17:23;;;;;;;6.33;3.80;;;9.90;99.90;;;;;;5095355;28;20514;-43
2022/11/05 03:20:01;;;;;;;5.00;3.77;;;9.90;99.90;;;;;;5095691;28;20510;-44
2022/11/05 03:22:34;;;;;;;6.67;3.37;;;9.90;99.90;;;;;;5096246;28;20457;-42
2022/11/05 03:25:05;;;;;;;6.87;3.67;;;9.90;99.90;;;;;;5087183;28;20423;-47
2022/11/05 03:27:36;;;;;;;5.43;3.80;;;9.80;99.90;;;;;;5092125;28;20434;-47
2022/11/05 03:30:06;;;;;;;15.83;5.20;;;9.80;99.90;;;;;;5095677;28;20549;-50
2022/11/05 03:32:37;;;;;;;11.93;4.07;;;9.80;99.90;;;;;;5095383;28;20474;-42
2022/11/05 03:35:12;;;;;;;5.67;3.47;;;9.80;99.90;;;;;;5095404;28;20542;-45
2022/11/05 03:37:43;;;;;;;8.27;3.87;;;9.80;99.90;;;;;;5095772;28;20466;-45
2022/11/05 03:40:12;;;;;;;16.33;3.63;;;9.80;99.90;;;;;;5095267;28;20494;-48
2022/11/05 03:42:45;;;;;;;4.77;3.43;;;9.90;99.90;;;;;;5095301;28;20442;-48
2022/11/05 03:45:16;;;;;;;7.87;3.90;;;9.80;99.90;;;;;;5095602;28;20430;-45
2022/11/05 03:47:46;;;;;;;11.33;4.13;;;9.90;99.90;;;;;;5090422;28;20466;-45
2022/11/05 03:50:20;;;;;;;11.47;3.60;;;9.90;99.90;;;;;;5088275;28;20452;-42
2022/11/05 03:52:52;;;;;;;7.80;4.10;;;9.80;99.90;;;;;;5095413;28;20489;-46
2022/11/05 03:55:20;;;;;;;11.27;4.47;;;9.90;99.90;;;;;;5095446;28;20437;-42
2022/11/05 03:57:51;;;;;;;7.40;3.93;;;9.90;99.90;;;;;;5095486;28;20441;-47
2022/11/05 04:00:18;;;;;;;6.37;3.60;;;9.80;99.90;;;;;;5095135;28;20486;-48
2022/11/05 04:02:44;;;;;;;7.17;3.63;;;9.80;99.90;;;;;;5095058;28;20493;-48
2022/11/05 04:05:11;;;;;;;5.60;3.40;;;9.80;99.90;;;;;;5084978;28;20511;-42
2022/11/05 04:18:46;;;;;;;9.77;4.40;;;9.80;99.90;;;;;;5082213;28;20465;-51
2022/11/05 04:24:08;;;;;;;4.07;2.73;;;9.70;99.90;;;;;;5095544;28;20486;-44
2022/11/05 04:26:35;;;;;;;5.90;4.10;;;9.70;99.90;;;;;;5094835;28;20433;-41
2022/11/05 04:31:46;;;;;;;6.03;3.70;;;9.70;99.90;;;;;;5098766;28;20476;-44
2022/11/05 04:34:17;;;;;;;5.27;4.10;;;9.60;99.90;;;;;;5098812;28;20510;-45
2022/11/05 04:36:45;;;;;;;10.73;3.90;;;9.60;99.90;;;;;;5098727;28;20423;-45
2022/11/05 04:39:13;;;;;;;4.90;3.90;;;9.50;99.90;;;;;;5089167;28;20466;-47
2022/11/05 04:41:42;;;;;;;5.93;3.20;;;9.50;99.90;;;;;;5096368;28;20442;-46
2022/11/05 04:44:09;;;;;;;4.80;3.40;;;9.50;99.90;;;;;;5098470;28;20466;-44
2022/11/05 04:46:38;;;;;;;4.07;3.20;;;9.40;99.90;;;;;;5098664;28;20469;-41
2022/11/05 04:49:05;;;;;;;10.50;3.23;;;9.40;99.90;;;;;;5093669;28;20527;-48
2022/11/05 04:51:32;;;;;;;7.97;3.80;;;9.40;99.90;;;;;;5090904;28;20422;-48
2022/11/05 04:54:04;;;;;;;4.47;3.77;;;9.40;99.90;;;;;;5098387;28;20494;-45
2022/11/05 04:56:36;;;;;;;10.70;2.90;;;9.40;99.90;;;;;;5098704;28;20471;-43
2022/11/05 04:59:02;;;;;;;6.33;3.27;;;9.40;99.90;;;;;;5085854;28;20417;-48
2022/11/05 05:01:29;;;;;;;4.10;3.20;;;9.40;99.90;;;;;;5098839;28;20445;-48
2022/11/05 05:03:56;;;;;;;8.63;3.10;;;9.50;99.90;;;;;;5099321;28;20421;-41
2022/11/05 05:06:23;;;;;;;8.10;3.50;;;9.40;99.90;;;;;;5099274;28;20418;-45
2022/11/05 05:08:51;;;;;;;9.37;4.00;;;9.40;99.90;;;;;;5099014;28;20521;-49
2022/11/05 05:11:20;;;;;;;6.10;4.00;;;9.40;99.90;;;;;;5086390;28;20417;-54
2022/11/05 05:13:49;;;;;;;6.13;2.77;;;9.40;99.90;;;;;;5099378;28;20498;-41
2022/11/05 05:16:20;;;;;;;6.27;3.30;;;9.40;99.90;;;;;;5095773;28;20448;-49
2022/11/05 05:18:47;;;;;;;6.13;3.33;;;9.40;99.90;;;;;;5089901;28;20435;-45
2022/11/05 05:24:01;;;;;;;6.80;3.00;;;9.30;99.90;;;;;;5098097;28;20430;-46
2022/11/05 05:26:28;;;;;;;6.83;3.10;;;9.20;99.90;;;;;;5097801;28;20502;-45
2022/11/05 05:28:56;;;;;;;7.77;3.07;;;9.20;99.90;;;;;;5098622;28;20426;-44
2022/11/05 05:31:23;;;;;;;6.60;4.07;;;9.20;99.90;;;;;;5097805;28;20506;-49
2022/11/05 05:33:53;;;;;;;6.23;3.60;;;9.20;99.90;;;;;;5097620;28;20446;-41
2022/11/05 05:36:20;;;;;;;9.97;3.67;;;9.20;99.90;;;;;;5097434;28;20469;-41
2022/11/05 05:38:48;;;;;;;6.07;3.40;;;9.20;99.90;;;;;;5097135;28;20453;-45
2022/11/05 05:41:16;;;;;;;9.93;2.87;;;9.20;99.90;;;;;;5097674;28;20521;-41
2022/11/05 05:43:48;;;;;;;4.43;4.03;;;9.20;99.90;;;;;;5097814;28;20501;-45
2022/11/05 05:46:17;;;;;;;3.97;2.47;;;9.20;99.90;;;;;;5097816;28;20466;-44
2022/11/05 05:48:48;;;;;;;4.60;2.93;;;9.20;99.90;;;;;;5097575;28;20443;-41
2022/11/05 05:51:16;;;;;;;7.67;3.87;;;9.20;99.90;;;;;;5097218;28;20417;-43
2022/11/05 05:53:43;;;;;;;4.67;2.93;;;9.20;99.90;;;;;;5097268;28;20514;-41
2022/11/05 05:56:10;;;;;;;9.50;3.17;;;9.20;99.90;;;;;;5097697;28;20530;-43
2022/11/05 05:58:39;;;;;;;4.40;3.13;;;9.10;99.90;;;;;;5097216;28;20455;-46
2022/11/05 06:01:07;;;;;;;4.90;3.50;;;9.10;99.90;;;;;;5097102;28;20479;-45
2022/11/05 06:03:35;;;;;;;9.70;3.30;;;9.20;99.90;;;;;;5097263;28;20469;-46
2022/11/05 06:06:03;;;;;;;5.03;3.50;;;9.10;99.90;;;;;;5089628;28;20549;-43
2022/11/05 06:08:30;;;;;;;7.93;2.80;;;9.20;99.90;;;;;;5092107;28;20506;-42
2022/11/05 06:10:59;;;;;;;3.70;2.80;;;9.20;99.90;;;;;;5096986;28;20467;-44
2022/11/05 06:13:27;;;;;;;4.50;2.80;;;9.20;99.90;;;;;;5096662;28;20480;-41
2022/11/05 06:15:59;;;;;;;4.33;2.77;;;9.20;99.90;;;;;;5097358;28;20765;-47
2022/11/05 06:18:26;;;;;;;10.07;4.90;;;9.20;99.90;;;;;;5096560;28;20427;-46
2022/11/05 06:20:54;;;;;;;3.87;2.70;;;9.20;99.90;;;;;;5096759;28;20517;-46
2022/11/05 06:23:21;;;;;;;14.03;3.00;;;9.20;99.90;;;;;;5096692;28;20492;-48
2022/11/05 06:25:48;;;;;;;2.70;2.03;;;9.20;99.90;;;;;;5097537;28;20433;-52
2022/11/05 06:28:18;;;;;;;6.60;3.33;;;9.20;99.90;;;;;;5097299;28;20506;-42
2022/11/05 06:30:51;;;;;;;10.40;3.43;;;9.20;99.90;;;;;;5096825;28;20520;-44
2022/11/05 06:33:18;;;;;;;6.13;3.20;;;9.10;99.90;;;;;;5094149;28;20437;-47
2022/11/05 06:35:44;;;;;;;5.70;3.07;;;9.10;99.90;;;;;;5086566;28;20445;-41
2022/11/05 06:38:13;;;;;;;7.27;3.00;;;9.10;99.90;;;;;;5096959;28;20427;-46
2022/11/05 06:40:43;;;;;;;6.13;2.90;;;9.00;99.90;;;;;;5096473;28;20505;-46
2022/11/05 06:43:09;;;;;;;5.60;2.53;;;9.10;99.90;;;;;;5096396;28;20545;-47
2022/11/05 06:45:38;;;;;;;11.00;4.80;;;9.00;99.90;;;;;;5096844;28;20466;-44
2022/11/05 06:48:05;;;;;;;7.10;2.80;;;9.00;99.90;;;;;;5096613;28;20467;-47
2022/11/05 06:50:32;;;;;;;7.73;3.10;;;9.00;99.90;;;;;;5095920;28;20458;-44
2022/11/05 06:53:01;;;;;;;3.03;2.10;;;8.90;99.90;;;;;;5096860;28;20446;-41
2022/11/05 06:55:30;;;;;;;6.40;3.03;;;9.00;99.90;;;;;;5096170;28;20529;-45
2022/11/05 06:57:57;;;;;;;3.90;2.20;;;8.90;99.90;;;;;;5096284;28;20446;-48
2022/11/05 07:00:25;;;;;;;4.03;2.47;;;8.90;99.90;;;;;;5095959;28;20481;-40
2022/11/05 07:02:51;;;;;;;3.67;2.13;;;9.00;99.90;;;;;;5096370;28;20448;-41
2022/11/05 07:05:18;;;;;;;5.13;2.10;;;9.00;99.90;;;;;;5096230;28;20434;-48
2022/11/05 07:07:45;;;;;;;6.23;3.43;;;8.90;99.90;;;;;;5091329;28;20470;-43
2022/11/05 07:10:14;;;;;;;4.60;3.50;;;8.90;99.90;;;;;;5088529;28;20435;-46
2022/11/05 07:12:43;;;;;;;3.67;2.80;;;8.90;99.90;;;;;;5096624;28;20435;-39
2022/11/05 07:15:11;;;;;;;5.97;2.53;;;8.90;99.90;;;;;;5094826;28;20490;-52
2022/11/05 07:17:39;;;;;;;3.70;2.33;;;8.90;99.90;;;;;;5085507;28;20426;-40
2022/11/05 07:20:07;;;;;;;7.80;3.40;;;8.80;99.90;;;;;;5096246;28;20482;-43
2022/11/05 07:22:34;;;;;;;8.37;3.17;;;8.90;99.90;;;;;;5096527;28;20448;-45
2022/11/05 07:25:01;;;;;;;5.57;3.13;;;8.90;99.90;;;;;;5096047;28;20439;-40
2022/11/05 07:27:30;;;;;;;2.93;2.33;;;8.90;99.90;;;;;;5096266;28;20470;-41
2022/11/05 07:30:07;;;;;;;5.20;3.33;;;8.90;99.90;;;;;;5095973;28;20441;-40
2022/11/05 07:32:37;;;;;;;5.20;3.30;;;8.80;99.90;;;;;;5096280;28;20466;-42
2022/11/05 07:35:05;;;;;;;5.90;2.80;;;8.90;99.90;;;;;;5096339;28;20410;-44
2022/11/05 07:37:41;;;;;;;3.43;2.10;;;8.80;99.90;;;;;;5096545;28;20486;-44
2022/11/05 07:40:09;;;;;;;6.47;2.30;;;8.80;99.90;;;;;;5096108;28;20473;-41
2022/11/05 07:42:36;;;;;;;9.07;3.83;;;8.90;99.90;;;;;;5096335;28;20436;-43
2022/11/05 07:45:05;;;;;;;3.47;2.57;;;8.90;99.90;;;;;;5096318;28;20466;-50
2022/11/05 07:47:36;;;;;;;4.30;3.30;;;8.90;99.90;;;;;;5083523;28;20478;-45
2022/11/05 07:50:02;;;;;;;4.77;2.80;;;8.90;99.90;;;;;;5096414;28;20462;-54
2022/11/05 07:52:31;;;;;;;4.60;3.30;;;8.90;99.90;;;;;;5095879;28;20537;-50
2022/11/05 07:54:57;;;;;;;9.00;3.40;;;9.00;99.90;;;;;;5096221;28;20442;-45
2022/11/05 07:57:24;;;;;;;7.33;2.90;;;9.00;99.90;;;;;;5095648;28;20470;-42
2022/11/05 07:59:55;;;;;;;4.07;2.33;;;9.00;99.90;;;;;;5105064;23;20478;-50
2022/11/05 08:02:23;;;;;;;5.20;3.47;;;8.50;99.90;;;;;;5095449;28;20534;-47
2022/11/05 08:04:49;;;;;;;8.53;3.07;;;9.10;99.90;;;;;;5109091;28;20524;-50
2022/11/05 08:07:16;;;;;;;7.80;3.40;;;9.10;99.90;;;;;;5117908;28;20441;-54
2022/11/05 08:09:43;;;;;;;5.37;2.80;;;9.10;99.90;;;;;;5117321;28;20539;-54
2022/11/05 08:12:10;;;;;;;16.60;4.20;;;9.10;99.90;;;;;;5117788;28;20467;-52
2022/11/05 08:14:37;;;;;;;8.80;3.47;;;9.10;99.90;;;;;;5113458;28;20506;-49
2022/11/05 08:17:03;;;;;;;5.40;3.70;;;9.10;99.90;;;;;;5097799;28;20452;-49
2022/11/05 08:19:31;;;;;;;7.17;3.50;;;9.20;99.90;;;;;;5097065;28;20454;-49
2022/11/05 08:21:58;;;;;;;6.57;4.00;;;9.20;99.90;;;;;;5097065;28;20478;-52
2022/11/05 08:24:25;;;;;;;6.23;3.37;;;9.20;99.90;;;;;;5096995;28;20493;-50
2022/11/05 08:26:53;;;;;;;4.60;3.70;;;9.20;99.90;;;;;;5096756;28;20457;-48
2022/11/05 08:29:20;;;;;;;8.00;5.30;;;9.20;99.90;;;;;;5096573;28;20462;-55
2022/11/05 08:31:48;;;;;;;6.10;3.37;;;9.20;99.90;;;;;;5096601;28;20469;-51
2022/11/05 08:34:18;;;;;;;3.83;2.60;;;9.20;99.90;;;;;;5096840;28;20492;-54
2022/11/05 08:36:46;;;;;;;6.47;3.80;;;9.20;99.90;;;;;;5096765;28;20505;-51
2022/11/05 08:39:13;;;;;;;5.77;3.13;;;9.20;99.90;;;;;;5097491;28;20426;-52
2022/11/05 08:41:40;;;;;;;8.07;4.43;;;9.20;99.90;;;;;;5096758;28;20497;-51
2022/11/05 08:44:10;;;;;;;7.43;3.97;;;9.30;99.90;;;;;;5096814;28;20808;-55
2022/11/05 08:46:37;;;;;;;4.63;3.33;;;9.30;99.90;;;;;;5096666;28;20466;-47
2022/11/05 08:49:04;;;;;;;8.97;3.80;;;9.30;99.90;;;;;;5096725;28;20431;-48
2022/11/05 08:51:31;;;;;;;5.80;3.80;;;9.30;99.90;;;;;;5096504;28;20527;-52
2022/11/05 08:53:59;;;;;;;7.03;3.90;;;9.30;99.90;;;;;;5096644;28;20484;-51
2022/11/05 08:56:26;;;;;;;4.90;3.43;;;9.50;99.90;;;;;;5096628;28;20460;-53
2022/11/05 08:58:56;;;;;;;7.87;3.60;;;9.50;99.90;;;;;;5092297;28;20530;-47
2022/11/05 09:01:23;;;;;;;6.80;4.30;;;9.60;99.90;;;;;;5069705;28;20487;-53
2022/11/05 09:03:51;;;;;;;5.00;3.60;;;9.70;99.90;;;;;;5068089;28;20447;-55
2022/11/05 09:06:18;;;;;;;4.07;2.90;;;9.80;99.90;;;;;;5042949;28;20459;-51
2022/11/05 09:08:45;;;;;;;7.30;4.40;;;10.00;99.90;;;;;;5056957;28;20454;-57
2022/11/05 09:11:16;;;;;;;7.97;2.70;;;10.20;99.90;;;;;;5056527;28;20436;-53
2022/11/05 09:13:43;;;;;;;7.43;2.50;;;10.30;99.90;;;;;;5055962;28;20440;-53
2022/11/05 09:16:17;;;;;;;7.07;2.70;;;10.40;99.90;;;;;;5045598;28;20450;-53
2022/11/05 09:18:44;;;;;;;4.70;2.93;;;10.60;99.90;;;;;;5055382;28;20468;-57
2022/11/05 09:21:11;;;;;;;7.57;2.70;;;10.80;99.90;;;;;;5056948;28;20480;-56
2022/11/05 09:23:38;;;;;;;8.73;2.40;;;11.10;99.90;;;;;;5056265;28;20443;-48
2022/11/05 09:26:06;;;;;;;7.10;3.13;;;11.80;99.90;;;;;;5055466;28;20588;-55
2022/11/05 09:28:37;;;;;;;6.80;2.30;;;12.80;99.90;;;;;;5056519;28;20444;-59
2022/11/05 09:31:07;;;;;;;5.17;2.87;;;13.80;99.90;;;;;;5040620;28;20507;-52
2022/11/05 09:33:34;;;;;;;7.60;2.83;;;15.00;99.90;;;;;;5055772;28;20452;-48
2022/11/05 09:36:02;;;;;;;7.03;2.00;;;16.00;99.90;;;;;;5056445;28;20508;-51
2022/11/05 09:38:31;;;;;;;4.20;2.23;;;16.90;99.90;;;;;;5056693;28;20472;-48
2022/11/05 09:41:02;;;;;;;3.70;2.37;;;17.40;99.90;;;;;;5043212;28;21007;-54
2022/11/05 09:43:35;;;;;;;4.87;2.30;;;17.80;99.90;;;;;;5053207;28;20470;-49
2022/11/05 09:46:09;;;;;;;3.00;2.07;;;18.20;99.90;;;;;;5056394;28;20496;-52
2022/11/05 09:48:38;;;;;;;4.93;2.80;;;18.50;99.90;;;;;;5055664;28;20463;-48
2022/11/05 09:51:06;;;;;;;4.10;1.90;;;18.90;99.90;;;;;;5046430;28;20432;-56
2022/11/05 09:53:41;;;;;;;4.50;2.30;;;19.00;99.90;;;;;;5046660;28;20483;-52
2022/11/05 09:56:18;;;;;;;3.57;2.20;;;18.70;99.90;;;;;;5043693;28;20507;-49
2022/11/05 09:58:48;;;;;;;6.10;2.67;;;18.70;99.90;;;;;;5056100;28;20436;-46
2022/11/05 10:01:23;;;;;;;8.40;2.83;;;18.90;99.90;;;;;;5048902;28;20482;-56
2022/11/05 10:03:53;;;;;;;4.40;2.60;;;18.90;99.90;;;;;;5050146;28;20451;-53
2022/11/05 10:06:23;;;;;;;5.93;2.33;;;19.00;99.90;;;;;;5055469;28;20492;-50
2022/11/05 10:08:56;;;;;;;3.00;2.00;;;19.30;99.90;;;;;;5038734;28;20474;-53
2022/11/05 10:11:30;;;;;;;5.70;2.50;;;19.10;99.90;;;;;;5047378;28;20444;-54
2022/11/05 10:14:02;;;;;;;5.27;1.47;;;19.10;99.90;;;;;;5047219;28;20466;-49
2022/11/05 10:16:33;;;;;;;3.57;1.97;;;19.40;99.90;;;;;;5055455;28;20823;-44
2022/11/05 10:19:08;;;;;;;4.10;2.20;;;19.80;99.90;;;;;;5045018;28;20975;-55
2022/11/05 10:21:36;;;;;;;6.13;2.43;;;19.90;99.90;;;;;;5043725;28;20824;-56
2022/11/05 10:24:12;;;;;;;2.43;1.53;;;19.90;99.90;;;;;;5062244;28;20447;-52
2022/11/05 10:26:39;;;;;;;4.53;1.90;;;20.00;99.90;;;;;;5074279;28;20965;-46
2022/11/05 10:29:06;;;;;;;5.13;2.63;;;19.90;99.90;;;;;;5075323;28;20427;-52
2022/11/05 10:31:37;;;;;;;4.97;2.30;;;20.00;99.90;;;;;;5075036;28;20455;-49
2022/11/05 10:34:06;;;;;;;4.77;2.20;;;19.70;99.90;;;;;;5074958;28;20503;-48
2022/11/05 10:36:35;;;;;;;4.23;2.00;;;19.40;99.90;;;;;;5075607;28;20472;-49
2022/11/05 10:39:10;;;;;;;3.17;2.00;;;18.90;99.90;;;;;;5073179;28;20491;-56
2022/11/05 10:42:05;;;;;;;8.83;2.80;;;18.60;99.90;;;;;;5061268;28;20491;-53
2022/11/05 10:44:39;;;;;;;4.00;2.13;;;18.60;99.90;;;;;;5061496;28;20474;-50
2022/11/05 10:47:26;;;;;;;4.97;1.90;;;18.60;99.90;;;;;;5056510;28;20443;-52
2022/11/05 10:49:58;;;;;;;4.70;1.63;;;18.40;99.90;;;;;;5075214;28;20474;-52
2022/11/05 10:52:30;;;;;;;3.43;1.60;;;17.80;99.90;;;;;;5074825;28;20435;-52
2022/11/05 10:55:00;;;;;;;2.47;1.47;;;17.30;99.90;;;;;;5075187;28;20478;-50
2022/11/05 10:57:33;;;;;;;4.03;2.00;;;16.70;99.90;;;;;;5058184;28;20463;-51
2022/11/05 11:00:27;;;;;;;2.80;1.77;;;16.20;99.90;;;;;;5087495;28;20422;-51
2022/11/05 11:02:59;;;;;;;5.00;2.07;;;15.40;99.90;;;;;;5088900;28;20500;-55
2022/11/05 11:05:30;;;;;;;2.60;1.57;;;15.10;99.90;;;;;;5093922;28;20431;-51
2022/11/05 11:08:03;;;;;;;3.47;1.93;;;14.50;99.90;;;;;;5086134;28;20462;-52
2022/11/05 11:10:34;;;;;;;3.17;1.80;;;14.10;99.90;;;;;;5094502;28;20427;-45
2022/11/05 11:13:01;;;;;;;4.60;1.27;;;13.90;99.90;;;;;;5094237;28;21025;-52
2022/11/05 11:15:31;;;;;;;1.87;1.23;;;13.70;99.90;;;;;;5077070;28;20465;-51
2022/11/05 11:18:23;;;;;;;1.70;1.07;;;13.50;99.90;;;;;;5091335;28;20438;-55
2022/11/05 11:20:50;;;;;;;2.23;1.23;;;13.40;99.90;;;;;;5078376;28;20442;-54
2022/11/05 11:23:17;;;;;;;5.73;1.50;;;13.20;99.90;;;;;;5094489;28;20430;-53
2022/11/05 11:25:50;;;;;;;5.00;1.50;;;13.00;99.90;;;;;;5075655;28;20512;-52
2022/11/05 11:28:21;;;;;;;2.03;1.30;;;13.00;99.90;;;;;;5094149;28;20458;-52
2022/11/05 11:30:56;;;;;;;5.50;1.30;;;13.10;99.90;;;;;;5094048;28;20434;-43
2022/11/05 11:33:28;;;;;;;3.17;1.50;;;13.00;99.90;;;;;;5094487;28;20485;-52
2022/11/05 11:35:55;;;;;;;4.23;1.47;;;12.90;99.90;;;;;;5082343;28;20437;-52
2022/11/05 11:38:25;;;;;;;3.83;1.40;;;12.90;99.90;;;;;;5093134;28;20435;-50
2022/11/05 11:41:00;;;;;;;3.83;1.30;;;12.90;99.90;;;;;;5088519;28;20481;-49
2022/11/05 11:43:30;;;;;;;3.13;1.27;;;13.00;99.90;;;;;;5095265;28;20502;-53
2022/11/05 11:45:58;;;;;;;4.43;1.33;;;13.00;99.90;;;;;;5092564;28;20475;-52
2022/11/05 11:48:29;;;;;;;3.03;1.77;;;13.20;99.90;;;;;;5084800;28;20434;-55
2022/11/05 11:50:57;;;;;;;4.00;1.57;;;13.20;99.90;;;;;;5086347;28;20505;-53
2022/11/05 11:53:35;;;;;;;2.17;1.03;;;13.20;99.90;;;;;;5094375;28;20612;-51
2022/11/05 11:56:15;;;;;;;8.63;1.57;;;13.20;99.90;;;;;;5089090;28;20478;-53
2022/11/05 11:58:48;;;;;;;5.43;1.40;;;13.20;99.90;;;;;;5084824;28;20500;-48
2022/11/05 12:01:49;;;;;;;14.63;1.70;;;13.30;99.90;;;;;;5065783;28;20431;-47
2022/11/05 12:04:38;;;;;;;7.10;1.17;;;13.20;99.90;;;;;;5034217;28;20507;-51
2022/11/05 12:07:16;;;;;;;6.97;1.60;;;13.20;99.90;;;;;;5065684;28;20440;-46
2022/11/05 12:10:00;;;;;;;4.43;1.30;;;13.20;99.90;;;;;;5056278;28;20440;-48
2022/11/05 12:12:37;;;;;;;2.60;1.30;;;13.10;99.90;;;;;;5065732;28;20487;-53
2022/11/05 12:15:23;;;;;;;2.37;1.10;;;13.00;99.90;;;;;;5050979;28;20428;-49
2022/11/05 12:17:55;;;;;;;2.07;1.10;;;13.00;99.90;;;;;;5055506;28;20572;-53
2022/11/05 12:20:38;;;;;;;9.03;1.40;;;12.90;99.90;;;;;;5069609;28;20487;-52
2022/11/05 12:23:26;;;;;;;8.30;2.17;;;12.90;99.90;;;;;;5060594;28;20514;-46
2022/11/05 12:26:01;;;;;;;4.03;1.30;;;12.80;99.90;;;;;;5055776;28;20488;-53
2022/11/05 12:28:53;;;;;;;2.90;1.23;;;12.80;99.90;;;;;;5059969;28;20468;-52
2022/11/05 12:31:29;;;;;;;3.10;1.37;;;12.80;99.90;;;;;;5058513;28;20478;-51
2022/11/05 12:34:07;;;;;;;2.00;1.20;;;12.70;99.90;;;;;;5059462;28;20428;-45
2022/11/05 12:36:59;;;;;;;1.37;1.10;;;12.70;99.90;;;;;;5064094;28;20549;-50
2022/11/05 12:39:40;;;;;;;1.93;1.10;;;12.70;99.90;;;;;;5061314;28;20428;-49
2022/11/05 12:42:13;;;;;;;2.93;0.97;;;12.80;99.90;;;;;;5057851;28;20494;-51
2022/11/05 12:44:59;;;;;;;3.83;1.10;;;12.90;99.90;;;;;;5042332;28;20444;-51
2022/11/05 12:47:40;;;;;;;1.60;1.10;;;13.10;99.90;;;;;;5073297;28;20606;-48
2022/11/05 12:50:21;;;;;;;2.93;1.27;;;13.40;99.90;;;;;;5055200;28;20551;-51
2022/11/05 12:53:10;;;;;;;1.97;1.43;;;13.70;99.90;;;;;;5043910;28;20482;-50
2022/11/05 12:55:42;;;;;;;2.40;1.07;;;13.50;99.90;;;;;;5057532;28;20536;-51
2022/11/05 12:58:15;;;;;;;1.73;1.13;;;13.50;99.90;;;;;;5057166;28;20491;-50
2022/11/05 13:00:49;;;;;;;1.27;1.07;;;13.40;99.90;;;;;;5075951;28;20546;-49
2022/11/05 13:03:25;;;;;;;4.47;1.10;;;13.30;99.90;;;;;;5077608;28;20443;-52
2022/11/05 13:05:59;;;;;;;2.90;1.40;;;13.30;99.90;;;;;;5077319;28;20465;-48
2022/11/05 13:08:36;;;;;;;4.13;1.73;;;13.30;99.90;;;;;;5077035;28;20432;-48
2022/11/05 13:11:12;;;;;;;4.40;3.93;;;13.30;99.90;;;;;;5076965;28;20445;-52
2022/11/05 13:13:43;;;;;;;3.33;1.67;;;13.30;99.90;;;;;;5076885;28;20449;-50
2022/11/05 13:16:16;;;;;;;2.53;1.33;;;13.40;99.90;;;;;;5077003;28;20482;-51
2022/11/05 13:18:46;;;;;;;4.70;1.57;;;13.40;99.90;;;;;;5077061;28;20455;-51
2022/11/05 13:21:15;;;;;;;3.10;1.33;;;13.40;99.90;;;;;;5077039;28;20446;-50
2022/11/05 13:23:47;;;;;;;1.00;0.90;;;13.40;99.90;;;;;;5067832;28;20509;-58
2022/11/05 13:26:21;;;;;;;2.50;0.97;;;13.40;99.90;;;;;;5067396;28;20435;-62
2022/11/05 13:28:54;;;;;;;3.67;1.20;;;13.40;99.90;;;;;;5076947;28;20451;-58
2022/11/05 13:31:29;;;;;;;6.60;2.63;;;13.40;99.90;;;;;;5076780;28;20462;-48
2022/11/05 13:33:57;;;;;;;2.20;1.40;;;13.40;99.90;;;;;;5076720;28;20430;-56
2022/11/05 13:39:25;;;;;;;2.20;1.63;;;13.40;99.90;;;;;;5076365;28;20434;-51
2022/11/05 13:42:04;;;;;;;3.33;1.23;;;13.40;99.90;;;;;;5075902;28;20485;-55
2022/11/05 13:44:57;;;;;;;4.43;1.30;;;13.20;99.90;;;;;;5076989;28;20423;-55
2022/11/05 13:47:43;;;;;;;2.47;1.60;;;13.00;99.90;;;;;;5076671;28;20620;-51
2022/11/05 13:50:41;;;;;;;2.70;1.40;;;12.90;99.90;;;;;;5076548;28;20474;-57
2022/11/05 13:53:39;;;;;;;2.50;1.33;;;12.90;99.90;;;;;;5076553;28;20423;-46
2022/11/05 13:56:19;;;;;;;3.03;1.27;;;12.80;99.90;;;;;;5075220;28;20467;-55
2022/11/05 13:59:07;;;;;;;5.27;1.57;;;12.80;99.90;;;;;;5076197;28;20490;-46